createdAt,value
2018-11-13T00:00:04.267Z,45.23
2018-11-13T00:02:32.384Z,49.63
2018-11-13T00:05:00.543Z,46.50
2018-11-13T00:07:28.614Z,42.70
2018-11-13T00:09:56.699Z,47.57
2018-11-13T00:12:24.926Z,44.17
2018-11-13T00:14:53.004Z,46.57
2018-11-13T00:17:21.183Z,57.90
2018-11-13T00:19:49.263Z,51.43
2018-11-13T00:22:17.511Z,43.97
2018-11-13T00:24:45.625Z,49.13
2018-11-13T00:27:13.683Z,56.33
2018-11-13T00:29:41.760Z,54.90
2018-11-13T00:32:09.842Z,46.07
2018-11-13T00:34:38.028Z,40.87
2018-11-13T00:37:06.143Z,49.80
2018-11-13T00:39:34.382Z,45.97
2018-11-13T00:42:02.542Z,57.93
2018-11-13T00:44:30.656Z,42.90
2018-11-13T00:46:58.707Z,45.90
2018-11-13T00:49:27.108Z,44.10
2018-11-13T00:51:54.870Z,58.33
2018-11-13T00:54:22.961Z,55.80
2018-11-13T00:56:51.148Z,53.17
2018-11-13T00:59:19.263Z,48.87
2018-11-13T01:01:47.366Z,59.40
2018-11-13T01:04:15.365Z,52.03
2018-11-13T01:06:43.477Z,53.50
2018-11-13T01:09:11.598Z,57.37
2018-11-13T01:11:39.791Z,54.50
2018-11-13T01:14:08.308Z,51.33
2018-11-13T01:16:36.585Z,50.33
2018-11-13T01:19:04.843Z,57.60
2018-11-13T01:21:32.932Z,47.30
2018-11-13T01:24:01.195Z,57.47
2018-11-13T01:26:29.107Z,50.57
2018-11-13T01:28:57.245Z,50.90
2018-11-13T01:31:25.338Z,56.30
2018-11-13T01:33:53.407Z,59.50
2018-11-13T01:36:21.542Z,54.83
2018-11-13T01:38:49.623Z,51.20
2018-11-13T01:41:17.707Z,60.23
2018-11-13T01:43:45.788Z,53.07
2018-11-13T01:46:13.900Z,51.93
2018-11-13T01:48:41.970Z,51.53
2018-11-13T01:51:10.044Z,53.27
2018-11-13T01:53:38.118Z,52.97
2018-11-13T01:56:06.187Z,45.07
2018-11-13T01:58:34.410Z,47.43
2018-11-13T02:01:02.400Z,62.43
2018-11-13T02:03:30.465Z,56.70
2018-11-13T02:05:58.636Z,59.13
2018-11-13T02:08:26.725Z,44.10
2018-11-13T02:10:54.817Z,48.87
2018-11-13T02:13:22.880Z,61.10
2018-11-13T02:15:50.949Z,53.50
2018-11-13T02:18:19.029Z,58.40
2018-11-13T02:20:47.112Z,51.73
2018-11-13T02:23:15.179Z,43.43
2018-11-13T02:25:43.245Z,64.40
2018-11-13T02:28:11.332Z,67.73
2018-11-13T02:30:39.396Z,54.33
2018-11-13T02:33:07.479Z,54.80
2018-11-13T02:35:35.565Z,44.73
2018-11-13T02:38:03.688Z,58.83
2018-11-13T02:40:31.727Z,53.17
2018-11-13T02:42:59.779Z,52.33
2018-11-13T02:45:27.856Z,61.23
2018-11-13T02:47:55.929Z,52.47
2018-11-13T02:50:24.011Z,55.60
2018-11-13T02:52:52.072Z,48.30
2018-11-13T02:55:20.158Z,51.80
2018-11-13T02:57:48.364Z,54.73
2018-11-13T03:00:19.098Z,47.70
2018-11-13T03:02:47.262Z,48.20
2018-11-13T03:05:16.665Z,58.03
2018-11-13T03:07:44.828Z,55.33
2018-11-13T03:10:13.912Z,49.10
2018-11-13T03:12:42.105Z,44.50
2018-11-13T03:15:11.604Z,49.33
2018-11-13T03:17:40.272Z,50.63
2018-11-13T03:20:11.325Z,42.50
2018-11-13T03:22:39.708Z,52.90
2018-11-13T03:25:09.403Z,42.83
2018-11-13T03:27:38.051Z,40.57
2018-11-13T03:30:09.937Z,45.97
2018-11-13T03:32:38.067Z,39.93
2018-11-13T03:35:06.313Z,40.73
2018-11-13T03:37:34.501Z,40.73
2018-11-13T03:40:02.689Z,46.60
2018-11-13T03:42:30.848Z,46.30
2018-11-13T03:44:59.113Z,44.50
2018-11-13T03:47:27.289Z,37.17
2018-11-13T03:49:55.440Z,37.43
2018-11-13T03:52:23.560Z,49.47
2018-11-13T03:54:51.728Z,43.93
2018-11-13T03:57:19.907Z,42.80
2018-11-13T03:59:48.154Z,54.00
2018-11-13T04:02:16.292Z,39.40
2018-11-13T04:04:45.723Z,39.83
2018-11-13T04:07:13.928Z,40.63
2018-11-13T04:09:42.119Z,44.03
2018-11-13T04:12:10.247Z,43.63
2018-11-13T04:14:38.341Z,44.90
2018-11-13T04:17:06.513Z,52.93
2018-11-13T04:19:34.695Z,49.77
2018-11-13T04:22:04.786Z,46.30
2018-11-13T04:24:33.428Z,45.20
2018-11-13T04:27:02.309Z,50.67
2018-11-13T04:29:30.723Z,50.37
2018-11-13T04:31:58.853Z,45.20
2018-11-13T04:34:26.920Z,45.77
2018-11-13T04:36:55.005Z,50.30
2018-11-13T04:39:23.078Z,54.43
2018-11-13T04:41:51.127Z,44.40
2018-11-13T04:44:19.251Z,54.47
2018-11-13T04:46:47.331Z,61.30
2018-11-13T04:49:15.440Z,47.87
2018-11-13T04:51:43.599Z,57.70
2018-11-13T04:54:11.714Z,44.60
2018-11-13T04:56:39.787Z,55.37
2018-11-13T04:59:07.963Z,49.17
2018-11-13T05:01:36.138Z,46.83
2018-11-13T05:04:04.744Z,50.77
2018-11-13T05:06:32.820Z,46.27
2018-11-13T05:09:00.908Z,53.63
2018-11-13T05:11:28.986Z,42.20
2018-11-13T05:13:57.419Z,64.83
2018-11-13T05:16:25.471Z,53.27
2018-11-13T05:18:53.553Z,49.00
2018-11-13T05:21:21.896Z,60.37
2018-11-13T05:23:50.085Z,58.97
2018-11-13T05:26:18.259Z,53.60
2018-11-13T05:28:46.540Z,61.03
2018-11-13T05:31:14.759Z,61.33
2018-11-13T05:33:42.878Z,53.37
2018-11-13T05:36:10.960Z,58.83
2018-11-13T05:38:39.032Z,55.17
2018-11-13T05:41:07.130Z,50.70
2018-11-13T05:43:35.192Z,49.73
2018-11-13T05:46:03.249Z,61.90
2018-11-13T05:48:31.368Z,60.70
2018-11-13T05:50:59.642Z,50.30
2018-11-13T05:53:27.739Z,50.37
2018-11-13T05:55:55.818Z,47.53
2018-11-13T05:58:23.901Z,44.07
2018-11-13T06:00:51.978Z,55.33
2018-11-13T06:03:20.036Z,56.80
2018-11-13T06:05:48.111Z,49.07
2018-11-13T06:08:18.816Z,46.37
2018-11-13T06:10:47.009Z,46.33
2018-11-13T06:13:15.079Z,45.10
2018-11-13T06:15:43.151Z,59.00
2018-11-13T06:18:11.264Z,60.50
2018-11-13T06:20:39.377Z,52.33
2018-11-13T06:23:07.501Z,49.73
2018-11-13T06:25:35.505Z,54.90
2018-11-13T06:28:03.604Z,61.77
2018-11-13T06:30:31.688Z,59.70
2018-11-13T06:32:59.771Z,62.83
2018-11-13T06:35:27.819Z,54.50
2018-11-13T06:37:55.904Z,53.33
2018-11-13T06:40:23.945Z,63.90
2018-11-13T06:42:52.043Z,62.50
2018-11-13T06:45:22.159Z,54.83
2018-11-13T06:47:50.500Z,47.70
2018-11-13T06:50:18.601Z,48.53
2018-11-13T06:52:47.399Z,45.67
2018-11-13T06:55:46.672Z,61.97
2018-11-13T06:58:14.836Z,58.83
2018-11-13T07:00:42.943Z,54.43
2018-11-13T07:03:11.016Z,52.57
2018-11-13T07:05:39.076Z,64.00
2018-11-13T07:08:07.193Z,56.13
2018-11-13T07:10:35.251Z,49.97
2018-11-13T07:13:03.343Z,47.83
2018-11-13T07:15:32.001Z,56.00
2018-11-13T07:18:01.407Z,54.90
2018-11-13T07:20:30.776Z,50.60
2018-11-13T07:22:58.843Z,62.23
2018-11-13T07:25:26.988Z,58.87
2018-11-13T07:27:55.127Z,55.03
2018-11-13T07:30:23.907Z,57.97
2018-11-13T07:32:52.023Z,58.57
2018-11-13T07:35:20.809Z,58.17
2018-11-13T07:37:50.579Z,48.07
2018-11-13T07:40:18.716Z,51.13
2018-11-13T07:42:46.795Z,55.47
2018-11-13T07:45:15.293Z,52.33
2018-11-13T07:47:45.601Z,46.00
2018-11-13T07:50:14.035Z,60.13
2018-11-13T07:52:42.120Z,51.17
2018-11-13T07:55:11.059Z,45.17
2018-11-13T07:57:39.149Z,54.80
2018-11-13T08:00:09.556Z,51.67
2018-11-13T08:02:37.616Z,56.97
2018-11-13T08:05:06.468Z,49.00
2018-11-13T08:07:34.543Z,46.63
2018-11-13T08:10:02.667Z,55.53
2018-11-13T08:12:30.776Z,47.23
2018-11-13T08:14:58.832Z,54.00
2018-11-13T08:17:26.891Z,42.97
2018-11-13T08:19:54.965Z,57.63
2018-11-13T08:22:23.362Z,71.60
2018-11-13T08:24:52.120Z,51.93
2018-11-13T08:27:20.191Z,60.20
2018-11-13T08:29:48.263Z,51.13
2018-11-13T08:32:16.320Z,48.23
2018-11-13T08:34:44.384Z,47.37
2018-11-13T08:37:12.444Z,46.33
2018-11-13T08:39:40.521Z,46.30
2018-11-13T08:42:08.734Z,41.73
2018-11-13T08:44:36.857Z,56.43
2018-11-13T08:47:05.112Z,46.53
2018-11-13T08:49:33.192Z,44.33
2018-11-13T08:52:01.546Z,45.17
2018-11-13T08:54:29.624Z,49.23
2018-11-13T08:56:57.716Z,42.83
2018-11-13T08:59:25.817Z,67.37
2018-11-13T09:01:53.884Z,43.47
2018-11-13T09:04:21.956Z,45.07
2018-11-13T09:06:50.064Z,49.17
2018-11-13T09:09:19.334Z,44.53
2018-11-13T09:11:47.498Z,52.77
2018-11-13T09:14:15.660Z,44.23
2018-11-13T09:16:43.855Z,57.37
2018-11-13T09:19:12.293Z,45.97
2018-11-13T09:21:40.608Z,44.57
2018-11-13T09:24:08.714Z,47.13
2018-11-13T09:26:36.817Z,48.50
2018-11-13T09:29:05.024Z,42.73
2018-11-13T09:31:33.373Z,42.40
2018-11-13T09:34:01.610Z,50.90
2018-11-13T09:36:29.775Z,39.87
2018-11-13T09:38:57.956Z,76.20
2018-11-13T09:41:26.284Z,52.53
2018-11-13T09:43:54.463Z,45.27
2018-11-13T09:46:22.539Z,56.80
2018-11-13T09:48:50.803Z,51.47
2018-11-13T09:51:19.464Z,51.17
2018-11-13T09:53:47.965Z,48.70
2018-11-13T09:56:16.255Z,42.87
2018-11-13T09:58:44.392Z,51.77
2018-11-13T10:01:12.716Z,59.40
2018-11-13T10:03:41.029Z,49.60
2018-11-13T10:06:08.668Z,50.93
2018-11-13T10:08:36.902Z,44.83
2018-11-13T10:11:05.046Z,46.90
2018-11-13T10:13:33.128Z,44.50
2018-11-13T10:16:01.279Z,46.10
2018-11-13T10:18:29.595Z,53.03
2018-11-13T10:20:58.044Z,67.90
2018-11-13T10:23:26.263Z,50.77
2018-11-13T10:25:54.422Z,55.23
2018-11-13T10:28:22.537Z,52.83
2018-11-13T10:30:50.654Z,59.40
2018-11-13T10:33:18.744Z,58.10
2018-11-13T10:35:46.885Z,51.73
2018-11-13T10:38:15.078Z,52.10
2018-11-13T10:40:43.384Z,58.80
2018-11-13T10:43:11.376Z,48.63
2018-11-13T10:45:39.471Z,64.67
2018-11-13T10:48:07.559Z,60.83
2018-11-13T10:50:35.670Z,75.83
2018-11-13T10:53:03.812Z,57.10
2018-11-13T10:55:31.976Z,50.77
2018-11-13T10:58:00.136Z,58.57
2018-11-13T11:00:32.487Z,59.50
2018-11-13T11:03:13.555Z,56.40
2018-11-13T11:05:41.687Z,63.03
2018-11-13T11:08:09.852Z,71.67
2018-11-13T11:10:38.072Z,53.10
2018-11-13T11:13:06.369Z,71.10
2018-11-13T11:15:34.267Z,67.70
2018-11-13T11:18:02.449Z,63.73
2018-11-13T11:20:30.722Z,62.30
2018-11-13T11:22:59.994Z,54.03
2018-11-13T11:25:28.164Z,61.47
2018-11-13T11:27:56.171Z,67.57
2018-11-13T11:30:24.219Z,89.03
2018-11-13T11:32:52.291Z,61.57
2018-11-13T11:35:20.370Z,59.73
2018-11-13T11:37:48.453Z,69.73
2018-11-13T11:40:16.576Z,77.77
2018-11-13T11:42:44.620Z,66.87
2018-11-13T11:45:13.780Z,72.73
2018-11-13T11:47:41.878Z,63.77
2018-11-13T11:50:10.992Z,62.63
2018-11-13T11:52:39.123Z,74.33
2018-11-13T11:55:07.501Z,67.50
2018-11-13T11:57:35.614Z,72.80
2018-11-13T12:00:04.308Z,78.43
2018-11-13T12:02:32.403Z,55.90
2018-11-13T12:05:00.466Z,66.23
2018-11-13T12:07:28.520Z,53.93
2018-11-13T12:09:56.595Z,63.40
2018-11-13T12:12:24.759Z,60.50
2018-11-13T12:14:52.816Z,69.70
2018-11-13T12:17:20.891Z,68.83
2018-11-13T12:19:48.976Z,75.77
2018-11-13T12:22:17.032Z,57.93
2018-11-13T12:24:45.119Z,57.53
2018-11-13T12:27:13.190Z,50.47
2018-11-13T12:29:41.400Z,62.03
2018-11-13T12:32:09.708Z,53.33
2018-11-13T12:34:37.879Z,53.60
2018-11-13T12:37:05.889Z,59.10
2018-11-13T12:39:33.984Z,59.17
2018-11-13T12:42:02.276Z,61.30
2018-11-13T12:44:30.328Z,38.13
2018-11-13T12:46:58.422Z,52.37
2018-11-13T12:49:26.536Z,24.20
2018-11-13T12:52:00.074Z,17.87
2018-11-13T12:54:28.140Z,17.20
2018-11-13T12:56:56.201Z,16.47
2018-11-13T12:59:24.269Z,17.13
2018-11-13T13:01:53.378Z,18.13
2018-11-13T13:04:20.505Z,14.83
2018-11-13T13:06:48.621Z,16.47
2018-11-13T13:09:16.776Z,21.47
2018-11-13T13:11:44.868Z,16.47
2018-11-13T13:14:14.052Z,17.43
2018-11-13T13:16:42.168Z,16.80
2018-11-13T13:20:34.784Z,17.63
2018-11-13T13:23:02.877Z,16.73
2018-11-13T13:25:31.006Z,18.20
2018-11-13T13:27:59.062Z,16.63
2018-11-13T13:30:27.213Z,17.43
2018-11-13T13:32:55.276Z,16.30
2018-11-13T13:35:39.138Z,16.43
2018-11-13T13:38:07.840Z,15.30
2018-11-13T13:40:36.436Z,15.97
2018-11-13T13:43:04.801Z,15.60
2018-11-13T13:45:32.950Z,17.63
2018-11-13T13:48:01.057Z,16.00
2018-11-13T13:50:29.140Z,18.30
2018-11-13T13:52:57.483Z,19.13
2018-11-13T13:55:26.945Z,18.00
2018-11-13T13:57:55.048Z,19.83
2018-11-13T14:00:23.277Z,15.30
2018-11-13T14:02:51.241Z,25.57
2018-11-13T14:05:19.891Z,17.53
2018-11-13T14:07:47.986Z,17.93
2018-11-13T14:10:16.071Z,19.53
2018-11-13T14:12:44.155Z,18.27
2018-11-13T14:15:13.138Z,23.83
2018-11-13T14:17:41.542Z,29.10
2018-11-13T14:20:12.875Z,17.47
2018-11-13T14:22:41.140Z,16.80
2018-11-13T14:25:09.774Z,17.13
2018-11-13T14:27:38.161Z,17.37
2018-11-13T14:30:24.737Z,19.37
2018-11-13T14:32:53.673Z,23.57
2018-11-13T14:35:21.859Z,18.60
2018-11-13T14:37:50.268Z,18.03
2018-11-13T14:40:21.914Z,18.10
2018-11-13T14:42:50.211Z,20.40
2018-11-13T14:45:19.190Z,17.90
2018-11-13T14:47:47.944Z,18.37
2018-11-13T14:50:17.345Z,29.60
2018-11-13T14:52:45.943Z,21.40
2018-11-13T14:55:16.651Z,16.90
2018-11-13T14:57:45.142Z,18.90
2018-11-13T15:00:16.720Z,19.13
2018-11-13T15:02:45.171Z,17.37
2018-11-13T15:05:14.335Z,19.40
2018-11-13T15:07:43.359Z,19.47
2018-11-13T15:10:14.260Z,20.60
2018-11-13T15:12:42.512Z,18.47
2018-11-13T15:15:10.946Z,22.30
2018-11-13T15:17:39.496Z,18.50
2018-11-13T15:20:12.187Z,28.10
2018-11-13T15:22:40.688Z,18.70
2018-11-13T15:25:11.007Z,18.00
2018-11-13T15:27:39.063Z,17.73
2018-11-13T15:30:15.662Z,18.33
2018-11-13T15:32:44.784Z,18.50
2018-11-13T15:35:13.504Z,17.53
2018-11-13T15:37:42.229Z,16.83
2018-11-13T15:40:12.669Z,18.00
2018-11-13T15:42:41.591Z,17.80
2018-11-13T15:45:10.479Z,17.07
2018-11-13T15:47:39.468Z,18.33
2018-11-13T15:50:11.288Z,20.83
2018-11-13T15:52:39.376Z,18.57
2018-11-13T15:55:08.712Z,17.07
2018-11-13T15:57:37.519Z,18.30
2018-11-13T16:00:10.241Z,18.20
2018-11-13T16:02:38.525Z,17.47
2018-11-13T16:05:19.408Z,18.27
2018-11-13T16:07:47.580Z,17.87
2018-11-13T16:10:15.776Z,17.80
2018-11-13T16:12:44.092Z,17.70
2018-11-13T16:15:12.213Z,18.27
2018-11-13T16:17:40.378Z,22.00
2018-11-13T16:20:08.942Z,17.50
2018-11-13T16:22:37.444Z,18.73
2018-11-13T16:25:06.271Z,18.30
2018-11-13T16:27:34.414Z,17.00
2018-11-13T16:30:02.664Z,19.97
2018-11-13T16:32:30.852Z,20.90
2018-11-13T16:34:58.932Z,17.67
2018-11-13T16:37:27.080Z,17.73
2018-11-13T16:39:55.158Z,19.93
2018-11-13T16:42:23.219Z,19.30
2018-11-13T16:44:52.181Z,18.90
2018-11-13T16:47:19.455Z,18.90
2018-11-13T16:49:47.571Z,17.83
2018-11-13T16:52:15.672Z,18.63
2018-11-13T16:54:49.612Z,17.77
2018-11-13T16:57:18.232Z,19.87
2018-11-13T17:06:48.858Z,17.73
2018-11-13T17:09:16.893Z,17.97
2018-11-13T17:11:45.110Z,18.00
2018-11-13T17:14:13.167Z,17.90
2018-11-13T17:16:41.249Z,18.57
2018-11-13T17:19:09.378Z,19.30
2018-11-13T17:21:37.489Z,18.17
2018-11-13T17:24:05.657Z,17.40
2018-11-13T17:26:33.940Z,17.00
2018-11-13T17:29:02.044Z,17.90
2018-11-13T17:31:30.348Z,17.23
2018-11-13T17:33:58.397Z,18.70
2018-11-13T17:36:26.560Z,17.67
2018-11-13T17:38:54.715Z,18.47
2018-11-13T17:41:23.080Z,17.87
2018-11-13T17:43:51.312Z,18.17
2018-11-13T17:46:19.404Z,18.23
2018-11-13T17:48:47.695Z,17.40
2018-11-13T17:51:15.865Z,18.43
2018-11-13T17:53:43.976Z,18.43
2018-11-13T17:56:12.107Z,16.80
2018-11-13T17:58:40.274Z,17.50
2018-11-13T18:01:08.434Z,18.77
2018-11-13T18:03:36.536Z,39.30
2018-11-13T18:06:04.776Z,18.43
2018-11-13T18:08:32.884Z,17.67
2018-11-13T18:11:01.156Z,17.03
2018-11-13T18:13:29.270Z,16.93
2018-11-13T18:15:57.594Z,17.50
2018-11-13T18:18:25.727Z,18.03
2018-11-13T18:20:53.846Z,17.60
2018-11-13T18:23:21.959Z,17.43
2018-11-13T18:25:50.061Z,18.57
2018-11-13T18:28:18.382Z,18.77
2018-11-13T18:30:46.349Z,18.50
2018-11-13T18:33:14.566Z,18.40
2018-11-13T18:35:42.712Z,17.90
2018-11-13T18:38:12.465Z,18.73
2018-11-13T18:40:40.602Z,18.63
2018-11-13T18:43:08.792Z,18.23
2018-11-13T18:45:38.447Z,19.50
2018-11-13T18:48:06.997Z,19.70
2018-11-13T18:50:37.708Z,20.33
2018-11-13T18:53:06.061Z,18.70
2018-11-13T18:55:35.180Z,19.37
2018-11-13T18:58:03.523Z,19.80
2018-11-13T19:00:33.096Z,19.03
2018-11-13T19:03:02.610Z,19.33
2018-11-13T19:05:30.879Z,18.13
2018-11-13T19:07:59.483Z,17.67
2018-11-13T19:10:35.024Z,18.13
2018-11-13T19:13:04.591Z,17.93
2018-11-13T19:15:34.470Z,17.20
2018-11-13T19:18:02.626Z,16.50
2018-11-13T19:20:31.149Z,17.70
2018-11-13T19:22:59.507Z,17.83
2018-11-13T19:25:28.984Z,18.07
2018-11-13T19:27:57.833Z,18.30
2018-11-13T19:30:26.009Z,17.10
2018-11-13T19:32:54.192Z,17.30
2018-11-13T19:35:22.779Z,16.80
2018-11-13T19:37:51.947Z,17.70
2018-11-13T19:40:21.923Z,18.03
2018-11-13T19:42:50.897Z,17.70
2018-11-13T19:45:19.461Z,18.40
2018-11-13T19:47:47.592Z,17.37
2018-11-13T19:50:18.300Z,18.23
2018-11-13T19:52:46.560Z,18.07
2018-11-13T19:55:15.691Z,17.63
2018-11-13T19:57:44.647Z,17.00
2018-11-13T20:00:17.845Z,17.60
2018-11-13T20:02:46.562Z,17.20
2018-11-13T20:05:14.789Z,17.27
2018-11-13T20:07:43.048Z,17.80
2018-11-13T20:10:15.439Z,16.73
2018-11-13T20:12:44.569Z,17.00
2018-11-13T20:15:13.187Z,16.47
2018-11-13T20:17:41.392Z,16.60
2018-11-13T20:20:13.325Z,17.27
2018-11-13T20:22:41.517Z,17.07
2018-11-13T20:25:12.823Z,17.30
2018-11-13T20:27:41.276Z,16.60
2018-11-13T20:30:13.337Z,16.33
2018-11-13T20:32:41.515Z,16.00
2018-11-13T20:35:10.550Z,16.53
2018-11-13T20:37:38.824Z,16.50
2018-11-13T20:40:08.773Z,16.00
2018-11-13T20:42:36.958Z,21.47
2018-11-13T20:45:06.427Z,16.80
2018-11-13T20:47:34.609Z,16.33
2018-11-13T20:50:02.931Z,16.23
2018-11-13T20:52:31.088Z,16.97
2018-11-13T20:55:00.349Z,16.70
2018-11-13T20:57:28.944Z,15.70
2018-11-13T20:59:57.308Z,15.70
2018-11-13T21:02:25.590Z,15.97
2018-11-13T21:04:53.873Z,15.70
2018-11-13T21:07:22.286Z,16.57
2018-11-13T21:09:51.014Z,15.70
2018-11-13T21:12:18.720Z,15.47
2018-11-13T21:14:47.544Z,15.43
2018-11-13T21:17:15.958Z,15.10
2018-11-13T21:19:44.060Z,16.67
2018-11-13T21:22:12.626Z,16.37
2018-11-13T21:24:42.098Z,15.90
2018-11-13T21:27:10.114Z,16.80
2018-11-13T21:29:38.299Z,15.93
2018-11-13T21:32:07.491Z,16.13
2018-11-13T21:34:35.700Z,15.50
2018-11-13T21:37:03.869Z,16.90
2018-11-13T21:39:32.031Z,16.40
2018-11-13T21:42:00.242Z,19.60
2018-11-13T21:44:28.346Z,19.30
2018-11-13T21:46:56.524Z,17.87
2018-11-13T21:49:24.914Z,17.90
2018-11-13T21:51:53.168Z,17.17
2018-11-13T21:54:21.489Z,15.60
2018-11-13T21:56:49.652Z,17.53
2018-11-13T21:59:17.876Z,16.63
2018-11-13T22:01:46.149Z,15.77
2018-11-13T22:04:14.612Z,16.90
2018-11-13T22:06:44.835Z,17.87
2018-11-13T22:09:13.176Z,17.27
2018-11-13T22:11:41.328Z,17.00
2018-11-13T22:14:09.516Z,16.63
2018-11-13T22:16:37.754Z,17.27
2018-11-13T22:19:05.891Z,17.50
2018-11-13T22:21:34.045Z,19.50
2018-11-13T22:24:02.273Z,17.20
2018-11-13T22:26:30.411Z,18.57
2018-11-13T22:28:58.753Z,17.30
2018-11-13T22:31:26.763Z,16.10
2018-11-13T22:33:54.970Z,16.70
2018-11-13T22:36:23.093Z,20.30
2018-11-13T22:38:51.266Z,17.30
2018-11-13T22:41:19.507Z,18.00
2018-11-13T22:43:47.631Z,17.90
2018-11-13T22:46:15.833Z,17.53
2018-11-13T22:48:45.312Z,17.60
2018-11-13T22:51:13.387Z,16.33
2018-11-13T22:53:41.501Z,16.70
2018-11-13T22:56:09.590Z,18.13
2018-11-13T22:58:37.690Z,19.10
2018-11-13T23:01:06.083Z,17.40
2018-11-13T23:03:34.174Z,17.33
2018-11-13T23:06:02.280Z,18.37
2018-11-13T23:08:30.369Z,16.90
2018-11-13T23:11:02.722Z,17.97
2018-11-13T23:13:30.793Z,16.43
2018-11-13T23:15:58.904Z,17.83
2018-11-13T23:18:27.031Z,17.17
2018-11-13T23:20:55.124Z,18.70
2018-11-13T23:23:23.221Z,19.37
2018-11-13T23:25:51.416Z,16.47
2018-11-13T23:28:19.569Z,16.93
2018-11-13T23:30:47.861Z,17.83
2018-11-13T23:33:15.938Z,19.27
2018-11-13T23:35:44.118Z,17.60
2018-11-13T23:38:12.300Z,17.97
2018-11-13T23:40:40.448Z,19.27
2018-11-13T23:43:08.617Z,18.27
2018-11-13T23:47:01.890Z,17.10
2018-11-13T23:49:30.305Z,18.37
2018-11-13T23:51:58.450Z,18.17
2018-11-13T23:54:26.720Z,16.07
2018-11-13T23:56:54.887Z,18.17
2018-11-13T23:59:23.130Z,17.33
